Aviation Digital Data Service (ADDS)

Output produced by METARs form (1157 UTC 21 November 2014)
found at http://aviationweather.gov/adds/metars/
 
KLFT 211120Z 2112/2212 13004KT P6SM SCT060 OVC100 
     FM211500 13010KT P6SM BKN050 OVC080 
     FM220000 10006KT P6SM SCT035 OVC050